createdAt,value
2022-08-23T00:02:28.666Z,3.25
2022-08-23T00:05:08.184Z,3.60
2022-08-23T00:07:41.026Z,3.15
2022-08-23T00:10:10.346Z,3.65
2022-08-23T00:12:38.896Z,3.50
2022-08-23T00:15:09.701Z,3.60
2022-08-23T00:17:37.748Z,3.30
2022-08-23T00:20:07.994Z,3.63
2022-08-23T00:22:36.444Z,3.38
2022-08-23T00:25:06.739Z,3.28
2022-08-23T00:27:35.746Z,3.65
2022-08-23T00:30:05.486Z,3.30
2022-08-23T00:32:37.022Z,3.90
2022-08-23T00:35:06.630Z,3.78
2022-08-23T00:37:34.661Z,3.65
2022-08-23T00:40:03.224Z,3.35
2022-08-23T00:42:56.080Z,3.40
2022-08-23T00:45:45.441Z,3.70
2022-08-23T00:48:14.114Z,3.67
2022-08-23T00:50:49.972Z,3.80
2022-08-23T00:53:21.296Z,3.67
2022-08-23T00:55:53.580Z,3.75
2022-08-23T00:58:23.961Z,3.10
2022-08-23T01:00:54.981Z,3.80
2022-08-23T01:03:25.348Z,4.15
2022-08-23T01:06:02.917Z,4.05
2022-08-23T01:08:33.581Z,3.90
2022-08-23T01:11:08.888Z,4.00
2022-08-23T01:13:44.765Z,3.93
2022-08-23T01:16:16.953Z,4.07
2022-08-23T01:18:45.779Z,3.60
2022-08-23T01:21:19.689Z,4.50
2022-08-23T01:23:52.471Z,3.80
2022-08-23T01:26:22.742Z,4.15
2022-08-23T01:28:51.173Z,3.50
2022-08-23T01:31:20.692Z,4.00
2022-08-23T01:33:55.137Z,3.30
2022-08-23T01:36:23.185Z,3.88
2022-08-23T01:38:52.522Z,3.70
2022-08-23T01:41:20.959Z,3.33
2022-08-23T01:43:49.143Z,3.70
2022-08-23T01:46:19.700Z,3.23
2022-08-23T01:48:49.356Z,3.53
2022-08-23T01:51:20.594Z,3.90
2022-08-23T01:53:49.375Z,3.75
2022-08-23T01:56:38.185Z,3.40
2022-08-23T01:59:08.309Z,4.10
2022-08-23T02:01:36.794Z,3.40
2022-08-23T02:04:05.590Z,3.55
2022-08-23T02:06:33.998Z,3.35
2022-08-23T02:09:03.676Z,3.70
2022-08-23T02:11:37.444Z,3.97
2022-08-23T02:14:10.158Z,3.60
2022-08-23T02:16:41.981Z,3.73
2022-08-23T02:19:20.534Z,3.50
2022-08-23T02:21:49.043Z,4.00
2022-08-23T02:24:18.928Z,3.92
2022-08-23T02:26:50.579Z,3.65
2022-08-23T02:29:25.818Z,4.20
2022-08-23T02:31:54.410Z,3.20
2022-08-23T02:34:24.761Z,3.85
2022-08-23T02:36:55.347Z,4.00
2022-08-23T02:39:23.409Z,4.00
2022-08-23T02:41:53.540Z,4.13
2022-08-23T02:44:22.218Z,4.55
2022-08-23T02:46:50.802Z,3.80
2022-08-23T02:49:19.066Z,3.85
2022-08-23T02:51:47.231Z,4.20
2022-08-23T02:54:15.273Z,4.40
2022-08-23T02:56:43.193Z,4.30
2022-08-23T02:59:13.358Z,3.45
2022-08-23T03:01:42.299Z,4.40
2022-08-23T03:04:11.642Z,3.60
2022-08-23T03:06:40.042Z,5.00
2022-08-23T03:09:08.825Z,3.75
2022-08-23T03:11:36.962Z,3.80
2022-08-23T03:14:05.031Z,4.40
2022-08-23T03:16:34.666Z,4.15
2022-08-23T03:19:02.729Z,4.35
2022-08-23T03:21:31.221Z,3.80
2022-08-23T03:24:00.687Z,3.97
2022-08-23T03:26:28.804Z,4.80
2022-08-23T03:28:56.996Z,4.10
2022-08-23T03:31:25.361Z,4.90
2022-08-23T03:33:59.064Z,4.00
2022-08-23T03:36:27.948Z,4.32
2022-08-23T03:38:56.748Z,5.10
2022-08-23T03:41:25.122Z,4.20
2022-08-23T03:43:53.179Z,4.50
2022-08-23T03:46:23.969Z,4.20
2022-08-23T03:48:52.613Z,4.95
2022-08-23T03:51:22.747Z,4.30
2022-08-23T03:53:50.759Z,4.55
2022-08-23T03:56:25.870Z,4.63
2022-08-23T03:58:54.069Z,4.47
2022-08-23T04:01:26.490Z,5.07
2022-08-23T04:04:00.156Z,4.95
2022-08-23T04:06:32.929Z,4.47
2022-08-23T04:09:01.471Z,4.70
2022-08-23T04:11:29.478Z,4.88
2022-08-23T04:13:57.442Z,4.30
2022-08-23T04:16:25.347Z,4.20
2022-08-23T04:18:55.795Z,4.50
2022-08-23T04:21:24.975Z,5.57
2022-08-23T04:23:54.304Z,4.70
2022-08-23T04:26:23.057Z,4.40
2022-08-23T04:28:53.988Z,5.07
2022-08-23T04:31:22.800Z,4.20
2022-08-23T04:33:52.463Z,4.90
2022-08-23T04:36:23.293Z,4.40
2022-08-23T04:38:51.851Z,4.05
2022-08-23T04:41:38.798Z,3.90
2022-08-23T04:44:06.826Z,4.30
2022-08-23T04:46:34.852Z,4.70
2022-08-23T04:49:02.986Z,4.00
2022-08-23T04:51:30.877Z,4.75
2022-08-23T04:53:58.822Z,4.60
2022-08-23T04:56:28.369Z,4.80
2022-08-23T04:58:56.628Z,4.75
2022-08-23T05:01:25.725Z,4.22
2022-08-23T05:03:54.514Z,4.40
2022-08-23T05:06:23.784Z,4.45
2022-08-23T05:08:51.727Z,4.60
2022-08-23T05:11:20.606Z,4.55
2022-08-23T05:13:50.297Z,4.80
2022-08-23T05:16:18.936Z,4.68
2022-08-23T05:18:47.207Z,4.68
2022-08-23T05:21:16.587Z,4.20
2022-08-23T05:23:44.810Z,3.70
2022-08-23T05:26:19.073Z,4.57
2022-08-23T05:28:50.501Z,4.10
2022-08-23T05:31:20.432Z,4.23
2022-08-23T05:33:48.622Z,4.30
2022-08-23T05:36:18.727Z,4.78
2022-08-23T05:38:47.698Z,4.78
2022-08-23T05:41:16.758Z,5.15
2022-08-23T05:43:45.184Z,4.82
2022-08-23T05:46:19.810Z,5.68
2022-08-23T05:48:51.052Z,5.88
2022-08-23T05:51:22.025Z,7.00
2022-08-23T05:53:51.688Z,8.30
2022-08-23T05:56:21.465Z,8.90
2022-08-23T05:58:50.416Z,9.18
2022-08-23T06:01:21.178Z,9.63
2022-08-23T06:03:49.931Z,9.40
2022-08-23T06:06:19.340Z,9.30
2022-08-23T06:08:48.503Z,9.10
2022-08-23T06:11:18.852Z,8.18
2022-08-23T06:13:50.213Z,9.15
2022-08-23T06:16:23.895Z,9.88
2022-08-23T06:18:52.957Z,10.85
2022-08-23T06:21:20.925Z,11.27
2022-08-23T06:23:49.545Z,10.40
2022-08-23T06:26:20.427Z,11.95
2022-08-23T06:28:51.548Z,11.25
2022-08-23T06:31:39.763Z,11.77
2022-08-23T06:34:07.873Z,12.10
2022-08-23T06:36:36.554Z,13.00
2022-08-23T06:39:05.717Z,12.43
2022-08-23T06:41:33.988Z,11.37
2022-08-23T06:44:01.879Z,11.68
2022-08-23T06:46:32.964Z,12.65
2022-08-23T06:49:01.486Z,12.13
2022-08-23T06:51:31.347Z,11.65
2022-08-23T06:54:02.903Z,11.03
2022-08-23T06:56:31.878Z,12.65
2022-08-23T06:59:00.217Z,12.60
2022-08-23T07:01:49.817Z,12.73
2022-08-23T07:04:20.624Z,12.43
2022-08-23T07:06:48.703Z,10.30
2022-08-23T07:09:16.766Z,10.30
2022-08-23T07:11:44.672Z,10.38
2022-08-23T07:14:14.447Z,10.45
2022-08-23T07:16:45.868Z,10.20
2022-08-23T07:19:14.423Z,9.10
2022-08-23T07:21:43.555Z,10.65
2022-08-23T07:24:14.618Z,9.98
2022-08-23T07:26:43.477Z,10.18
2022-08-23T07:29:12.393Z,9.57
2022-08-23T07:31:44.117Z,9.75
2022-08-23T07:34:12.870Z,10.43
2022-08-23T07:36:42.063Z,8.90
2022-08-23T07:39:11.686Z,9.48
2022-08-23T07:41:40.005Z,9.55
2022-08-23T07:44:11.111Z,8.23
2022-08-23T07:46:42.154Z,6.93
2022-08-23T07:49:13.268Z,5.90
2022-08-23T07:51:45.644Z,6.20
2022-08-23T07:54:13.954Z,8.23
2022-08-23T07:56:41.929Z,6.70
2022-08-23T07:59:10.760Z,8.02
2022-08-23T08:01:39.262Z,6.35
2022-08-23T08:04:08.178Z,6.80
2022-08-23T08:06:41.812Z,5.90
2022-08-23T08:09:10.451Z,5.40
2022-08-23T08:11:39.154Z,5.72
2022-08-23T08:14:09.125Z,5.80
2022-08-23T08:16:40.557Z,4.70
2022-08-23T08:19:11.223Z,3.65
2022-08-23T08:21:41.998Z,2.90
2022-08-23T08:24:13.036Z,2.80
2022-08-23T08:26:41.984Z,3.20
2022-08-23T08:29:12.160Z,4.07
2022-08-23T08:31:40.839Z,3.80
2022-08-23T08:34:09.878Z,4.82
2022-08-23T08:36:42.085Z,5.28
2022-08-23T08:39:12.333Z,4.10
2022-08-23T08:42:05.432Z,5.00
2022-08-23T08:44:39.915Z,3.80
2022-08-23T08:47:14.299Z,4.15
2022-08-23T08:49:48.343Z,3.20
2022-08-23T08:52:21.347Z,3.33
2022-08-23T08:54:53.353Z,3.67
2022-08-23T08:57:27.892Z,2.95
2022-08-23T09:00:01.133Z,2.72
2022-08-23T09:02:33.796Z,2.70
2022-08-23T09:05:06.177Z,2.40
2022-08-23T09:07:45.251Z,3.10
2022-08-23T09:10:52.237Z,3.00
2022-08-23T09:14:03.412Z,3.28
2022-08-23T09:16:46.946Z,3.38
2022-08-23T09:19:15.022Z,3.30
2022-08-23T09:21:47.350Z,5.22
2022-08-23T09:24:17.642Z,4.38
2022-08-23T09:26:45.749Z,4.63
2022-08-23T09:29:21.906Z,2.95
2022-08-23T09:31:53.413Z,2.88
2022-08-23T09:34:30.717Z,2.63
2022-08-23T09:37:07.789Z,2.40
2022-08-23T09:39:39.153Z,2.40
2022-08-23T09:42:10.825Z,5.30
2022-08-23T09:44:40.517Z,15.40
2022-08-23T09:47:14.598Z,7.50
2022-08-23T09:49:45.098Z,4.80
2022-08-23T09:52:22.095Z,3.83
2022-08-23T09:54:59.496Z,4.28
2022-08-23T09:57:30.154Z,4.40
2022-08-23T10:00:03.253Z,4.40
2022-08-23T10:02:34.432Z,3.90
2022-08-23T10:05:05.899Z,3.35
2022-08-23T10:07:40.220Z,4.00
2022-08-23T10:10:25.327Z,3.50
2022-08-23T10:12:54.328Z,3.20
2022-08-23T10:15:33.060Z,3.70
2022-08-23T10:18:11.853Z,3.40
2022-08-23T10:20:48.324Z,3.80
2022-08-23T10:23:36.553Z,3.90
2022-08-23T10:26:11.873Z,3.50
2022-08-23T10:29:04.266Z,2.70
2022-08-23T10:31:40.803Z,2.80
2022-08-23T10:34:24.764Z,2.78
2022-08-23T10:37:08.264Z,2.70
2022-08-23T10:39:45.094Z,2.60
2022-08-23T10:42:23.071Z,2.90
2022-08-23T10:45:01.390Z,2.60
2022-08-23T10:47:37.372Z,2.55
2022-08-23T10:50:09.129Z,3.03
2022-08-23T10:52:41.194Z,2.58
2022-08-23T10:55:24.644Z,2.80
2022-08-23T10:57:54.410Z,2.80
2022-08-23T11:00:26.702Z,2.45
2022-08-23T11:03:00.685Z,2.08
2022-08-23T11:05:31.661Z,2.15
2022-08-23T11:08:02.877Z,2.60
2022-08-23T11:10:56.349Z,2.25
2022-08-23T11:13:28.741Z,2.20
2022-08-23T11:16:00.859Z,2.20
2022-08-23T11:18:42.989Z,2.38
2022-08-23T11:21:30.695Z,2.40
2022-08-23T11:24:31.799Z,2.20
2022-08-23T11:27:06.960Z,1.80
2022-08-23T11:29:40.112Z,1.70
2022-08-23T11:32:32.402Z,1.83
2022-08-23T11:35:08.924Z,1.40
2022-08-23T11:38:05.250Z,1.48
2022-08-23T11:40:59.807Z,1.90
2022-08-23T11:43:32.643Z,1.70
2022-08-23T11:46:34.555Z,1.50
2022-08-23T11:49:18.797Z,1.30
2022-08-23T11:51:55.841Z,1.50
2022-08-23T11:54:45.720Z,1.60
2022-08-23T11:57:24.305Z,2.00
2022-08-23T12:00:08.514Z,2.10
2022-08-23T12:02:55.250Z,1.95
2022-08-23T12:05:45.336Z,1.93
2022-08-23T12:08:34.249Z,1.50
2022-08-23T12:11:06.713Z,2.50
2022-08-23T12:13:51.663Z,1.70
2022-08-23T12:16:38.014Z,1.60
2022-08-23T12:19:39.932Z,1.90
2022-08-23T12:22:13.886Z,1.90
2022-08-23T12:24:46.860Z,1.70
2022-08-23T12:27:27.497Z,2.10
2022-08-23T12:30:02.714Z,1.80
2022-08-23T12:32:37.230Z,1.70
2022-08-23T12:35:33.025Z,1.42
2022-08-23T12:38:06.060Z,2.03
2022-08-23T12:40:39.789Z,1.67
2022-08-23T12:43:19.831Z,2.10
2022-08-23T12:45:53.766Z,2.30
2022-08-23T12:48:24.338Z,2.47
2022-08-23T12:50:57.669Z,2.00
2022-08-23T12:53:31.360Z,2.05
2022-08-23T12:56:04.803Z,2.73
2022-08-23T12:58:35.723Z,2.40
2022-08-23T13:01:07.418Z,2.13
2022-08-23T13:03:40.132Z,3.05
2022-08-23T13:06:13.122Z,2.58
2022-08-23T13:08:46.153Z,2.20
2022-08-23T13:11:16.349Z,2.10
2022-08-23T13:13:45.554Z,2.20
2022-08-23T13:16:30.521Z,2.30
2022-08-23T13:19:16.449Z,2.47
2022-08-23T13:21:46.142Z,2.85
2022-08-23T13:24:38.159Z,3.00
2022-08-23T13:27:16.094Z,3.20
2022-08-23T13:29:58.693Z,2.67
2022-08-23T13:32:36.706Z,2.70
2022-08-23T13:35:26.418Z,2.50
2022-08-23T13:37:59.075Z,1.80
2022-08-23T13:40:28.771Z,2.10
2022-08-23T13:43:00.689Z,2.63
2022-08-23T13:45:32.045Z,2.45
2022-08-23T13:48:03.921Z,2.20
2022-08-23T13:50:34.560Z,2.40
2022-08-23T13:53:20.605Z,2.67
2022-08-23T13:55:51.912Z,2.87
2022-08-23T13:58:28.759Z,3.05
2022-08-23T14:00:58.873Z,4.00
2022-08-23T14:03:27.889Z,3.67
2022-08-23T14:05:56.142Z,3.40
2022-08-23T14:08:25.454Z,2.70
2022-08-23T14:10:55.233Z,2.70
2022-08-23T14:13:25.573Z,2.50
2022-08-23T14:15:56.722Z,3.30
2022-08-23T14:18:26.613Z,2.10
2022-08-23T14:20:54.606Z,2.50
2022-08-23T14:23:22.506Z,2.77
2022-08-23T14:25:55.198Z,2.80
2022-08-23T14:28:26.068Z,2.78
2022-08-23T14:30:57.680Z,2.40
2022-08-23T14:33:26.317Z,3.10
2022-08-23T14:35:54.345Z,2.90
2022-08-23T14:38:22.382Z,3.00
2022-08-23T14:40:55.079Z,3.20
2022-08-23T14:43:23.280Z,3.73
2022-08-23T14:45:54.973Z,3.50
2022-08-23T14:48:25.211Z,3.08
2022-08-23T14:50:54.216Z,3.03
2022-08-23T14:53:24.909Z,2.60
2022-08-23T14:56:12.396Z,2.90
2022-08-23T14:58:42.893Z,2.80
2022-08-23T15:01:12.435Z,3.90
2022-08-23T15:03:41.893Z,3.40
2022-08-23T15:06:10.568Z,4.72
2022-08-23T15:08:38.901Z,4.00
2022-08-23T15:14:00.374Z,3.00
2022-08-23T15:16:29.539Z,2.60
2022-08-23T15:18:58.577Z,2.58
2022-08-23T15:21:26.721Z,2.50
2022-08-23T15:23:54.725Z,3.30
2022-08-23T15:26:26.067Z,3.25
2022-08-23T15:28:54.286Z,4.20
2022-08-23T15:31:22.325Z,4.80
2022-08-23T15:33:50.291Z,4.80
2022-08-23T15:36:19.104Z,5.38
2022-08-23T15:38:48.816Z,4.88
2022-08-23T15:41:19.252Z,4.72
2022-08-23T15:43:48.781Z,4.00
2022-08-23T15:46:21.550Z,4.15
2022-08-23T15:48:54.118Z,4.50
2022-08-23T15:51:22.576Z,3.53
2022-08-23T15:53:50.557Z,4.72
2022-08-23T15:56:25.961Z,4.68
2022-08-23T15:58:56.310Z,4.45
2022-08-23T16:01:25.596Z,4.10
2022-08-23T16:03:53.869Z,3.78
2022-08-23T16:06:22.010Z,3.50
2022-08-23T16:08:52.789Z,3.15
2022-08-23T16:11:21.863Z,3.83
2022-08-23T16:13:51.589Z,4.03
2022-08-23T16:16:27.200Z,3.90
2022-08-23T16:18:55.736Z,4.05
2022-08-23T16:21:25.144Z,3.42
2022-08-23T16:23:53.668Z,3.90
2022-08-23T16:26:32.385Z,3.70
2022-08-23T16:29:03.382Z,3.80
2022-08-23T16:31:38.900Z,3.40
2022-08-23T16:34:08.924Z,3.30
2022-08-23T16:36:36.891Z,3.08
2022-08-23T16:39:05.180Z,3.17
2022-08-23T16:41:33.133Z,3.03
2022-08-23T16:44:01.095Z,4.20
2022-08-23T16:46:29.390Z,3.63
2022-08-23T16:48:59.082Z,3.88
2022-08-23T16:51:27.318Z,3.22
2022-08-23T16:54:02.114Z,4.20
2022-08-23T16:56:31.244Z,3.70
2022-08-23T16:58:59.296Z,3.60
2022-08-23T17:01:28.285Z,3.55
2022-08-23T17:03:57.957Z,3.30
2022-08-23T17:06:26.421Z,3.20
2022-08-23T17:08:54.306Z,3.60
2022-08-23T17:11:22.279Z,3.65
2022-08-23T17:13:51.141Z,3.10
2022-08-23T17:16:19.308Z,3.20
2022-08-23T17:18:47.320Z,3.45
2022-08-23T17:21:20.045Z,3.20
2022-08-23T17:23:47.990Z,3.65
2022-08-23T17:26:16.009Z,3.10
2022-08-23T17:28:44.189Z,3.28
2022-08-23T17:31:13.233Z,3.43
2022-08-23T17:33:41.972Z,3.50
2022-08-23T17:36:28.159Z,3.30
2022-08-23T17:38:57.421Z,3.72
2022-08-23T17:41:25.699Z,3.78
2022-08-23T17:43:53.985Z,3.50
2022-08-23T17:46:22.159Z,2.90
2022-08-23T17:48:50.282Z,3.35
2022-08-23T17:51:18.253Z,3.87
2022-08-23T17:53:47.869Z,3.83
2022-08-23T17:56:15.868Z,4.30
2022-08-23T17:58:43.913Z,4.00
2022-08-23T18:01:12.081Z,3.20
2022-08-23T18:03:40.296Z,3.50
2022-08-23T18:06:16.825Z,3.72
2022-08-23T18:08:47.450Z,3.30
2022-08-23T18:11:16.725Z,3.70
2022-08-23T18:13:44.722Z,3.30
2022-08-23T18:16:13.933Z,3.28
2022-08-23T18:18:42.020Z,3.58
2022-08-23T18:21:12.674Z,3.55
2022-08-23T18:23:41.013Z,3.50
2022-08-23T18:26:32.633Z,2.95
2022-08-23T18:29:00.970Z,2.80
2022-08-23T18:31:29.137Z,2.60
2022-08-23T18:34:00.341Z,2.88
2022-08-23T18:36:29.659Z,2.70
2022-08-23T18:38:58.031Z,2.80
2022-08-23T18:41:27.718Z,2.88
2022-08-23T18:43:55.736Z,3.10
2022-08-23T18:46:23.763Z,2.60
2022-08-23T18:48:53.778Z,2.22
2022-08-23T18:51:23.597Z,2.40
2022-08-23T18:53:51.691Z,1.85
2022-08-23T18:56:19.695Z,2.20
2022-08-23T18:58:49.058Z,1.90
2022-08-23T19:01:25.429Z,2.50
2022-08-23T19:03:54.325Z,1.80
2022-08-23T19:06:22.673Z,2.40
2022-08-23T19:08:50.897Z,2.30
2022-08-23T19:11:20.020Z,2.40
2022-08-23T19:13:51.111Z,2.40
2022-08-23T19:16:21.684Z,2.15
2022-08-23T19:18:51.007Z,2.30
2022-08-23T19:21:21.611Z,2.20
2022-08-23T19:23:50.861Z,2.13
2022-08-23T19:26:22.036Z,2.35
2022-08-23T19:28:51.347Z,2.33
2022-08-23T19:31:19.515Z,2.10
2022-08-23T19:33:47.527Z,2.38
2022-08-23T19:36:35.711Z,2.50
2022-08-23T19:39:04.006Z,1.90
2022-08-23T19:41:32.514Z,1.92
2022-08-23T19:44:02.570Z,2.40
2022-08-23T19:46:31.219Z,1.80
2022-08-23T19:48:59.322Z,2.10
2022-08-23T19:51:28.086Z,1.63
2022-08-23T19:54:10.927Z,1.70
2022-08-23T19:56:41.203Z,1.80
2022-08-23T19:59:13.724Z,1.50
2022-08-23T20:01:42.032Z,2.20
2022-08-23T20:04:10.711Z,1.80
2022-08-23T20:06:38.994Z,1.90
2022-08-23T20:09:07.898Z,2.45
2022-08-23T20:11:37.074Z,2.20
2022-08-23T20:14:05.574Z,2.90
2022-08-23T20:16:37.755Z,3.22
2022-08-23T20:19:09.750Z,2.95
2022-08-23T20:21:38.203Z,3.30
2022-08-23T20:24:05.818Z,3.03
2022-08-23T20:26:40.476Z,3.33
2022-08-23T20:29:10.176Z,3.60
2022-08-23T20:31:47.071Z,3.40
2022-08-23T20:34:14.985Z,3.70
2022-08-23T20:36:42.929Z,3.28
2022-08-23T20:39:10.822Z,3.10
2022-08-23T20:41:41.321Z,3.58
2022-08-23T20:44:09.662Z,3.00
2022-08-23T20:46:39.155Z,2.92
2022-08-23T20:49:09.040Z,4.35
2022-08-23T20:51:36.974Z,3.20
2022-08-23T20:54:05.497Z,2.97
2022-08-23T20:56:33.796Z,3.10
2022-08-23T20:59:01.848Z,3.67
2022-08-23T21:01:29.954Z,3.90
2022-08-23T21:03:59.322Z,3.65
2022-08-23T21:06:29.466Z,4.07
2022-08-23T21:09:00.006Z,3.90
2022-08-23T21:11:29.835Z,3.20
2022-08-23T21:13:58.826Z,3.75
2022-08-23T21:16:27.408Z,3.80
2022-08-23T21:18:56.809Z,3.70
2022-08-23T21:21:27.204Z,3.70
2022-08-23T21:23:55.301Z,4.00
2022-08-23T21:26:23.669Z,3.80
2022-08-23T21:28:52.097Z,3.53
2022-08-23T21:31:24.763Z,3.30
2022-08-23T21:33:53.661Z,4.00
2022-08-23T21:36:23.352Z,4.00
2022-08-23T21:38:52.989Z,3.95
2022-08-23T21:41:33.667Z,4.28
2022-08-23T21:44:02.262Z,4.70
2022-08-23T21:46:30.347Z,4.40
2022-08-23T21:48:58.351Z,3.58
2022-08-23T21:51:26.289Z,4.10
2022-08-23T21:53:55.730Z,4.30
2022-08-23T21:56:23.977Z,4.13
2022-08-23T21:58:54.647Z,4.70
2022-08-23T22:01:22.641Z,4.68
2022-08-23T22:03:53.602Z,4.93
2022-08-23T22:06:25.379Z,4.70
2022-08-23T22:08:53.311Z,4.60
2022-08-23T22:11:24.010Z,4.20
2022-08-23T22:13:52.229Z,4.50
2022-08-23T22:16:20.362Z,4.53
2022-08-23T22:18:48.331Z,4.90
2022-08-23T22:21:16.279Z,5.28
2022-08-23T22:23:44.551Z,4.10
2022-08-23T22:26:13.634Z,5.00
2022-08-23T22:28:44.600Z,4.90
2022-08-23T22:31:14.986Z,4.13
2022-08-23T22:33:45.012Z,5.03
2022-08-23T22:36:16.500Z,5.32
2022-08-23T22:38:45.411Z,4.97
2022-08-23T22:41:16.755Z,5.40
2022-08-23T22:43:46.897Z,4.90
2022-08-23T22:46:15.137Z,5.50
2022-08-23T22:48:43.483Z,4.68
2022-08-23T22:51:17.358Z,4.50
2022-08-23T22:53:47.592Z,5.10
2022-08-23T22:56:18.622Z,5.10
2022-08-23T22:58:49.772Z,4.90
2022-08-23T23:01:22.404Z,4.38
2022-08-23T23:03:51.391Z,4.65
2022-08-23T23:06:20.650Z,5.30
2022-08-23T23:08:48.679Z,5.00
2022-08-23T23:11:18.255Z,5.90
2022-08-23T23:13:48.430Z,5.72
2022-08-23T23:16:19.103Z,5.00
2022-08-23T23:19:08.079Z,5.18
2022-08-23T23:21:38.215Z,4.88
2022-08-23T23:24:06.879Z,4.40
2022-08-23T23:26:34.949Z,5.90
2022-08-23T23:29:04.357Z,5.63
2022-08-23T23:31:32.632Z,4.95
2022-08-23T23:34:00.581Z,5.28
2022-08-23T23:36:28.771Z,5.30
2022-08-23T23:38:56.804Z,5.30
2022-08-23T23:41:24.843Z,5.30
2022-08-23T23:43:52.753Z,5.77
2022-08-23T23:46:24.027Z,5.28
2022-08-23T23:48:52.743Z,5.45
2022-08-23T23:51:24.595Z,6.38
2022-08-23T23:53:53.742Z,5.00
2022-08-23T23:56:25.517Z,6.65
2022-08-23T23:58:54.237Z,6.43
